Latest Weather Observations for Sheffield

IDT60801

Issued at 3:31 pm EST Thursday 1 September 2016 (issued every 30 minutes, with the page automatically refreshed every 10 minutes)

About weather observations | Map of weather stations | Latest weather observations for TAS | Other Formats
Station Details ID: 091291 Name: SHEFFIELD SCHOOL FARM Lat: -41.39 Lon: 146.32 Height: 294.2 m
Data from the previous 72 hours. | See also: Recent months at Sheffield
Date/Time
EST
Temp
°C
App
Temp
°C
Dew
Point
°C
Rel
Hum
%
Delta-T
°C
Wind Press
QNH
hPa
Press
MSL
hPa
Rain since
9am
mm
Dir  Spd
km/h
Gust
km/h
Spd
kts
Gust
kts
01/03:30pm 12.1 6.2 4.1 58 3.7 WSW 24 33 13 18 1012.4 1012.7 0.0
01/03:00pm 12.3 6.3 3.5 55 4.0 W 24 32 13 17 1012.5 1012.8 0.0
01/02:30pm 12.9 7.1 4.6 57 3.9 WSW 24 33 13 18 1012.7 1013.0 0.0
01/02:00pm 12.8 7.4 4.5 57 3.9 W 22 32 12 17 1012.6 1012.9 0.0
01/01:30pm 12.7 7.9 5.4 61 3.5 WSW 20 28 11 15 1012.8 1013.1 0.0
01/01:00pm 13.1 8.6 6.0 62 3.4 W 19 28 10 15 1012.9 1013.2 0.0
01/12:30pm 12.6 7.2 4.6 58 3.7 WSW 22 37 12 20 1013.0 1013.3 0.0
01/12:00pm 12.3 6.2 4.8 60 3.5 W 26 35 14 19 1013.3 1013.6 0.0
01/11:30am 12.3 6.3 5.5 63 3.2 W 26 35 14 19 1013.5 1013.8 0.0
01/11:00am 12.1 6.9 5.3 63 3.2 W 22 28 12 15 1013.6 1013.9 0.0
01/10:30am 12.0 6.0 5.2 63 3.2 W 26 41 14 22 1013.5 1013.8 0.0
01/10:00am 12.1 7.7 6.6 69 2.7 W 19 26 10 14 1013.4 1013.7 0.0
01/09:30am 11.0 8.4 7.9 81 1.5 NNW 11 13 6 7 1013.3 1013.8 0.0
01/09:00am 10.0 7.1 8.1 88 0.9 NNW 13 15 7 8 1013.3 1013.8 1.2
01/08:30am 8.7 5.6 7.2 90 0.7 NNW 13 15 7 8 1013.2 1013.7 1.2
01/08:00am 7.9 4.7 6.8 93 0.5 NNW 13 15 7 8 1012.9 1013.4 1.2
01/07:30am 7.2 4.6 6.1 93 0.5 N 9 13 5 7 1012.8 1013.3 1.2
01/07:00am 6.4 4.7 5.8 96 0.3 NNE 4 6 2 3 1012.6 1013.1 1.2
01/06:30am 5.8 4.3 5.1 95 0.3 N 2 6 1 3 1012.3 1012.8 1.2
01/06:00am 5.7 3.4 5.0 95 0.3 N 6 7 3 4 1012.0 1012.5 1.2
01/05:30am 6.1 3.9 5.2 94 0.4 NNW 6 7 3 4 1011.7 1012.3 1.2
01/05:00am 5.7 3.2 4.7 93 0.4 N 7 9 4 5 1011.7 1012.3 1.2
01/04:30am 6.8 4.1 5.7 93 0.5 WNW 9 11 5 6 1011.4 1011.9 1.2
01/04:00am 6.0 4.5 4.8 92 0.5 NW 2 6 1 3 1011.2 1011.7 1.2
01/03:30am 6.5 3.2 4.8 89 0.8 WNW 11 15 6 8 1011.1 1011.6 1.2
01/03:00am 6.9 4.5 5.2 89 0.8 NW 7 9 4 5 1011.1 1011.6 1.2
01/02:30am 7.0 5.2 5.5 90 0.7 NNE 4 7 2 4 1011.2 1011.7 1.2
01/02:00am 7.0 5.1 5.0 87 0.9 NNW 4 7 2 4 1011.3 1011.8 1.2
01/01:30am 8.1 4.2 5.4 83 1.2 WNW 15 19 8 10 1011.1 1011.6 1.2
01/01:00am 8.1 3.9 5.6 84 1.1 WNW 17 24 9 13 1011.0 1011.5 1.0
01/12:30am 8.3 4.5 5.9 85 1.1 WNW 15 22 8 12 1010.7 1011.2 1.0
01/12:00am 7.5 5.8 5.8 89 0.8 NW 4 6 2 3 1010.6 1011.1 1.0
 
Date/Time
EST
Temp
°C
App
Temp
°C
Dew
Point
°C
Rel
Hum
%
Delta-T
°C
Wind Press
QNH
hPa
Press
MSL
hPa
Rain since
9am
mm
Dir  Spd
km/h
Gust
km/h
Spd
kts
Gust
kts
31/11:30pm 7.7 6.4 6.0 89 0.8 N 2 6 1 3 1010.5 1011.0 1.0
31/11:00pm 8.3 6.7 6.3 87 0.9 NNW 4 7 2 4 1010.4 1010.9 1.0
31/10:30pm 8.1 6.1 7.0 93 0.5 NNW 7 9 4 5 1010.3 1010.8 1.0
31/10:00pm 7.5 6.2 6.1 91 0.6 NNE 2 6 1 3 1010.1 1010.6 1.0
31/09:30pm 8.2 6.1 6.7 90 0.7 NW 7 11 4 6 1010.0 1010.5 1.0
31/09:00pm 8.5 5.8 7.4 93 0.5 NW 11 15 6 8 1009.7 1010.2 1.0
31/08:30pm 7.9 5.2 7.3 96 0.3 NW 11 13 6 7 1009.5 1010.0 1.0
31/08:00pm 8.1 6.2 7.7 97 0.2 NW 7 11 4 6 1009.3 1009.8 1.0
31/07:30pm 8.8 6.4 8.5 98 0.1 NW 11 13 6 7 1009.1 1009.6 1.0
31/07:00pm 9.6 6.9 9.1 97 0.3 NNW 13 15 7 8 1008.9 1009.4 1.0
31/06:30pm 9.5 7.6 8.9 96 0.3 NNW 9 11 5 6 1008.8 1009.2 1.0
31/06:00pm 10.2 7.6 9.3 94 0.5 NNW 13 15 7 8 1008.5 1008.9 1.0
31/05:30pm 10.9 8.4 9.7 92 0.6 NW 13 17 7 9 1008.1 1008.6 1.0
31/05:00pm 10.9 8.7 9.5 91 0.7 NNW 11 17 6 9 1007.8 1008.3 1.0
31/04:30pm 11.7 8.9 9.9 89 0.9 NNW 15 19 8 10 1007.8 1008.3 1.0
31/04:00pm 12.1 9.8 10.3 89 0.9 NNW 13 17 7 9 1007.7 1008.2 1.0
31/03:30pm 11.7 8.7 10.6 93 0.6 NNW 17 22 9 12 1007.7 1008.2 1.0
31/03:00pm 11.5 7.9 9.9 90 0.8 NNW 19 26 10 14 1007.7 1008.2 1.0
31/02:30pm 11.8 7.9 9.4 85 1.2 NNW 20 30 11 16 1007.8 1008.3 0.8
31/02:00pm 13.4 10.5 9.5 77 2.0 NNW 15 26 8 14 1007.8 1008.3 0.8
31/01:30pm 13.2 10.8 10.0 81 1.7 NNW 13 20 7 11 1008.1 1008.6 0.8
31/01:00pm 12.8 10.8 10.3 85 1.3 NW 11 15 6 8 1008.5 1008.9 0.8
31/12:30pm 12.3 9.9 9.9 85 1.2 NW 13 17 7 9 1009.1 1009.6 0.8
31/12:00pm 12.2 10.0 10.9 92 0.7 NNW 13 19 7 10 1009.5 1010.0 0.8
31/11:30am 11.6 9.2 10.0 90 0.8 NW 13 17 7 9 1009.9 1010.4 0.4
31/11:00am 11.8 9.6 10.9 94 0.5 NW 13 19 7 10 1010.0 1010.5 0.0
31/10:30am 11.2 11.5 11.0 99 0.1 CALM 0 4 0 2 1010.2 1010.7 0.0
31/10:00am 10.4 10.5 10.2 99 0.1 CALM 0 2 0 1 1010.4 1010.9 0.0
31/09:30am 10.1 10.2 10.0 99 0.1 CALM 0 4 0 2 1010.4 1010.9 0.0
31/09:00am 9.7 9.6 9.6 99 0.1 CALM 0 0 0 0 1010.5 1011.0 19.4
31/08:30am 9.5 9.4 9.4 99 0.1 CALM 0 0 0 0 1010.5 1011.0 19.4
31/08:00am 9.1 8.5 9.0 99 0.0 WSW 2 6 1 3 1010.6 1011.1 19.2
31/07:30am 9.0 8.8 8.9 99 0.0 CALM 0 0 0 0 1010.3 1010.8 19.2
31/07:00am 8.8 8.1 8.7 99 0.0 SSW 2 4 1 2 1010.0 1010.5 19.2
31/06:30am 8.7 7.6 8.6 99 0.0 SE 4 4 2 2 1009.8 1010.3 19.2
31/06:00am 8.7 7.6 8.6 99 0.0 ESE 4 6 2 3 1009.7 1010.2 19.2
31/05:30am 8.6 7.1 8.5 99 0.0 ESE 6 7 3 4 1009.6 1010.1 19.2
31/05:00am 8.7 7.2 8.6 99 0.0 SE 6 6 3 3 1009.9 1010.4 19.2
31/04:30am 8.6 6.9 8.5 99 0.0 SE 7 9 4 5 1010.2 1010.7 19.2
31/04:00am 8.5 7.4 8.4 99 0.0 SE 4 7 2 4 1010.5 1011.0 19.0
31/03:30am 8.5 6.4 8.4 99 0.0 SE 9 9 5 5 1010.7 1011.2 18.4
31/03:00am 8.4 6.3 8.3 99 0.0 SE 9 13 5 7 1011.0 1011.5 17.2
31/02:30am 8.3 6.2 8.2 99 0.0 ESE 9 13 5 7 1011.6 1012.1 16.2
31/02:00am 8.2 5.7 8.1 99 0.0 SE 11 13 6 7 1012.0 1012.5 15.2
31/01:30am 8.1 5.9 7.8 98 0.1 SE 9 11 5 6 1012.4 1012.9 14.0
31/01:00am 8.0 6.1 7.7 98 0.1 SE 7 9 4 5 1012.9 1013.4 12.8
31/12:30am 7.9 6.0 7.6 98 0.1 SE 7 9 4 5 1013.2 1013.7 11.6
31/12:00am 7.8 5.5 7.4 97 0.2 SE 9 11 5 6 1013.5 1014.0 10.0
 
Date/Time
EST
Temp
°C
App
Temp
°C
Dew
Point
°C
Rel
Hum
%
Delta-T
°C
Wind Press
QNH
hPa
Press
MSL
hPa
Rain since
9am
mm
Dir  Spd
km/h
Gust
km/h
Spd
kts
Gust
kts
30/11:30pm 8.0 5.7 7.4 96 0.3 SE 9 11 5 6 1014.0 1014.5 8.4
30/11:00pm 8.0 6.2 7.2 95 0.4 ESE 6 7 3 4 1014.2 1014.7 6.6
30/10:30pm 8.3 7.3 7.2 93 0.5 E 2 6 1 3 1014.4 1014.9 5.0
30/10:00pm 8.6 7.6 7.4 92 0.6 NNE 2 2 1 1 1014.8 1015.4 4.0
30/09:30pm 9.1 7.9 7.9 92 0.6 E 4 6 2 3 1014.9 1015.5 3.0
30/09:00pm 9.3 7.5 7.9 91 0.7 NE 7 13 4 7 1015.4 1016.0 1.6
30/08:30pm 9.6 7.9 8.4 92 0.6 ENE 7 11 4 6 1015.4 1016.0 0.6
30/08:00pm 9.9 8.3 8.2 89 0.8 ENE 6 9 3 5 1015.7 1016.2 0.2
30/07:30pm 10.3 8.1 7.7 84 1.3 NE 9 17 5 9 1015.9 1016.4 0.0
30/07:00pm 10.7 8.3 8.8 88 1.0 NNE 11 15 6 8 1016.1 1016.6 0.0
30/06:30pm 11.2 8.8 8.8 85 1.2 NNE 11 20 6 11 1016.1 1016.6 0.0
30/06:00pm 11.6 11.1 9.5 87 1.1 E 2 9 1 5 1016.2 1016.7 0.0
30/05:30pm 11.2 10.3 9.3 88 1.0 ESE 4 7 2 4 1016.0 1016.5 0.0
30/05:00pm 10.9 8.5 8.8 87 1.1 ESE 11 13 6 7 1016.2 1016.7 0.0
30/04:30pm 11.4 9.9 9.0 85 1.2 SSE 7 11 4 6 1016.5 1017.0 0.0
30/04:00pm 11.3 8.9 8.5 83 1.4 SE 11 13 6 7 1016.9 1017.4 0.0
30/03:30pm 11.7 9.7 8.6 81 1.6 ESE 9 13 5 7 1017.4 1018.0 0.0
30/03:00pm 11.7 11.2 8.0 78 1.8 CALM 0 2 0 1 1018.1 1018.7 0.0
30/02:30pm 11.7 9.4 7.6 76 2.0 E 9 15 5 8 1018.3 1018.9 0.0
30/02:00pm 11.8 9.1 7.5 75 2.1 ESE 11 13 6 7 1018.6 1019.2 0.0
30/01:30pm 11.8 9.0 7.1 73 2.3 SE 11 17 6 9 1019.3 1019.8 0.0
30/01:00pm 11.4 8.9 6.7 73 2.3 E 9 15 5 8 1019.7 1020.2 0.0
30/12:30pm 11.2 7.9 6.3 72 2.3 ESE 13 17 7 9 1019.9 1020.4 0.0
30/12:00pm 11.2 8.3 6.5 73 2.2 ESE 11 17 6 9 1020.2 1020.7 0.0
30/11:30am 10.7 7.7 6.1 73 2.2 SE 11 15 6 8 1020.8 1021.4 0.0
30/11:00am 10.5 5.9 5.5 71 2.3 SE 19 22 10 12 1021.2 1021.8 0.0
30/10:30am 10.2 6.8 5.8 74 2.1 ESE 13 15 7 8 1021.9 1022.5 0.0
30/10:00am 9.8 5.8 4.8 71 2.3 ESE 15 19 8 10 1022.2 1022.8 0.0
30/09:30am 9.5 6.0 5.5 76 1.8 ESE 13 15 7 8 1022.3 1022.9 0.0
30/09:00am 7.6 4.3 4.4 80 1.4 E 11 15 6 8 1023.0 1023.5 0.2
30/08:30am 6.6 4.6 4.4 86 1.0 E 4 6 2 3 1023.4 1024.0 0.2
30/08:00am 4.7 2.1 4.1 96 0.3 ESE 7 9 4 5 1023.6 1024.2 0.2
30/07:30am 3.5 0.8 2.9 96 0.2 SE 6 7 3 4 1023.6 1024.2 0.0
30/07:00am 4.2 2.9 3.9 98 0.1 CALM 0 4 0 2 1023.6 1024.2 0.0
30/06:30am 3.1 0.8 2.7 97 0.2 ESE 4 6 2 3 1023.4 1024.0 0.0
30/06:00am 2.6 0.2 2.0 96 0.2 ESE 4 6 2 3 1023.5 1024.1 0.0
30/05:30am 3.3 0.5 2.9 97 0.2 S 7 9 4 5 1023.8 1024.4 0.0
30/05:00am 2.8 0.4 2.2 96 0.2 WSW 4 6 2 3 1023.9 1024.5 0.0
30/04:30am 2.8 0.8 2.1 95 0.3 NNW 2 6 1 3 1023.8 1024.4 0.0
30/04:00am 3.6 1.3 2.9 95 0.3 SE 4 4 2 2 1023.5 1024.1 0.0
30/03:30am 4.4 2.3 3.8 96 0.3 S 4 6 2 3 1023.2 1023.8 0.0
30/03:00am 4.3 2.2 3.7 96 0.3 SSE 4 6 2 3 1023.1 1023.7 0.0
30/02:30am 3.9 2.1 3.2 95 0.3 SE 2 4 1 2 1023.1 1023.7 0.0
30/02:00am 4.0 1.8 3.3 95 0.3 SE 4 4 2 2 1023.3 1023.9 0.0
30/01:30am 4.4 2.2 3.4 93 0.4 SSE 4 4 2 2 1023.5 1024.1 0.0
30/01:00am 4.9 3.6 4.0 94 0.4 CALM 0 0 0 0 1024.0 1024.6 0.0
30/12:30am 4.8 3.5 4.1 95 0.3 CALM 0 0 0 0 1024.4 1025.0 0.0
30/12:00am 4.5 3.2 3.9 96 0.3 CALM 0 0 0 0 1024.5 1025.1 0.0
 
Date/Time
EST
Temp
°C
App
Temp
°C
Dew
Point
°C
Rel
Hum
%
Delta-T
°C
Wind Press
QNH
hPa
Press
MSL
hPa
Rain since
9am
mm
Dir  Spd
km/h
Gust
km/h
Spd
kts
Gust
kts
29/11:30pm 4.3 2.1 3.6 95 0.3 ESE 4 4 2 2 1024.5 1025.1 0.0
29/11:00pm 4.2 2.0 3.5 95 0.3 SSE 4 6 2 3 1024.6 1025.2 0.0
29/10:30pm 4.5 2.0 3.5 93 0.4 SSE 6 7 3 4 1024.4 1025.0 0.0
29/10:00pm 4.6 3.2 3.3 91 0.5 CALM 0 4 0 2 1024.5 1025.1 0.0
29/09:30pm 5.3 2.8 4.0 91 0.6 S 6 6 3 3 1024.4 1025.0 0.0
29/09:00pm 4.9 3.4 3.1 88 0.7 CALM 0 4 0 2 1024.1 1024.7 0.0
29/08:30pm 5.9 4.2 3.9 87 0.9 ESE 2 6 1 3 1023.7 1024.3 0.0
29/08:00pm 6.3 4.2 4.0 85 1.0 SE 4 6 2 3 1023.6 1024.2 0.0
29/07:30pm 6.7 5.3 3.3 79 1.5 CALM 0 0 0 0 1023.6 1024.2 0.0
29/07:00pm 7.2 5.8 3.6 78 1.6 CALM 0 0 0 0 1023.6 1024.2 0.0
29/06:30pm 8.2 6.6 4.4 77 1.7 NNE 2 4 1 2 1023.4 1024.0 0.0
29/06:00pm 8.8 7.2 4.6 75 1.9 ESE 2 6 1 3 1022.9 1023.4 0.0
29/05:30pm 9.5 7.2 4.7 72 2.2 N 6 7 3 4 1022.7 1023.2 0.0
29/05:00pm 10.4 7.6 5.0 69 2.5 NNW 9 13 5 7 1022.7 1023.2 0.0
29/04:30pm 11.0 7.8 5.1 67 2.7 NNW 11 13 6 7 1022.4 1023.0 0.0
29/04:00pm 11.7 8.9 5.3 65 3.0 NNW 9 13 5 7 1022.1 1022.7 0.0

Other Formats:

Comma delimited format used in spreadsheet applications
http://www.bom.gov.au/fwo/IDT60801/IDT60801.94955.axf

JavaScript Object Notation format (JSON) in row-major order
http://www.bom.gov.au/fwo/IDT60801/IDT60801.94955.json